sensor_id;sensor_type;location;lat;lon;timestamp;P1;durP1;ratioP1;P2;durP2;ratioP2
23416;SDS011;11881;42.432;25.632;2024-03-08T00:00:29;40.53;;;23.60;;
23416;SDS011;11881;42.432;25.632;2024-03-08T00:02:58;41.13;;;24.17;;
23416;SDS011;11881;42.432;25.632;2024-03-08T00:05:26;38.50;;;22.70;;
23416;SDS011;11881;42.432;25.632;2024-03-08T00:07:51;38.40;;;23.57;;
23416;SDS011;11881;42.432;25.632;2024-03-08T00:10:18;38.70;;;22.10;;
23416;SDS011;11881;42.432;25.632;2024-03-08T00:12:46;38.90;;;22.93;;
23416;SDS011;11881;42.432;25.632;2024-03-08T00:15:12;42.00;;;23.93;;
23416;SDS011;11881;42.432;25.632;2024-03-08T00:17:42;36.83;;;21.73;;
23416;SDS011;11881;42.432;25.632;2024-03-08T00:20:09;35.37;;;21.03;;
23416;SDS011;11881;42.432;25.632;2024-03-08T00:22:35;39.23;;;22.43;;
23416;SDS011;11881;42.432;25.632;2024-03-08T00:25:02;39.93;;;22.47;;
23416;SDS011;11881;42.432;25.632;2024-03-08T00:27:28;38.10;;;22.07;;
23416;SDS011;11881;42.432;25.632;2024-03-08T00:29:55;40.63;;;23.63;;
23416;SDS011;11881;42.432;25.632;2024-03-08T00:32:21;37.23;;;22.20;;
23416;SDS011;11881;42.432;25.632;2024-03-08T00:34:49;39.10;;;22.40;;
23416;SDS011;11881;42.432;25.632;2024-03-08T00:37:17;43.47;;;23.27;;
23416;SDS011;11881;42.432;25.632;2024-03-08T00:39:42;39.03;;;23.33;;
23416;SDS011;11881;42.432;25.632;2024-03-08T00:42:08;40.20;;;22.73;;
23416;SDS011;11881;42.432;25.632;2024-03-08T00:44:34;43.73;;;23.90;;
23416;SDS011;11881;42.432;25.632;2024-03-08T00:46:59;40.07;;;23.23;;
23416;SDS011;11881;42.432;25.632;2024-03-08T00:49:25;39.83;;;23.30;;
23416;SDS011;11881;42.432;25.632;2024-03-08T00:51:50;40.60;;;23.53;;
23416;SDS011;11881;42.432;25.632;2024-03-08T00:54:16;39.17;;;23.20;;
23416;SDS011;11881;42.432;25.632;2024-03-08T00:56:41;40.33;;;22.93;;
23416;SDS011;11881;42.432;25.632;2024-03-08T00:59:07;43.70;;;23.40;;
23416;SDS011;11881;42.432;25.632;2024-03-08T01:01:33;43.07;;;24.33;;
23416;SDS011;11881;42.432;25.632;2024-03-08T01:03:58;39.17;;;23.30;;
23416;SDS011;11881;42.432;25.632;2024-03-08T01:06:24;41.47;;;23.67;;
23416;SDS011;11881;42.432;25.632;2024-03-08T01:08:49;44.70;;;23.43;;
23416;SDS011;11881;42.432;25.632;2024-03-08T01:11:17;44.50;;;25.40;;
23416;SDS011;11881;42.432;25.632;2024-03-08T01:13:43;43.77;;;25.03;;
23416;SDS011;11881;42.432;25.632;2024-03-08T01:16:08;44.83;;;24.47;;
23416;SDS011;11881;42.432;25.632;2024-03-08T01:18:35;42.80;;;23.93;;
23416;SDS011;11881;42.432;25.632;2024-03-08T01:21:00;42.67;;;24.23;;
23416;SDS011;11881;42.432;25.632;2024-03-08T01:23:26;43.10;;;24.90;;
23416;SDS011;11881;42.432;25.632;2024-03-08T01:25:51;43.50;;;24.77;;
23416;SDS011;11881;42.432;25.632;2024-03-08T01:28:22;44.30;;;24.60;;
23416;SDS011;11881;42.432;25.632;2024-03-08T01:30:49;48.17;;;25.40;;
23416;SDS011;11881;42.432;25.632;2024-03-08T01:33:20;46.53;;;24.70;;
23416;SDS011;11881;42.432;25.632;2024-03-08T01:35:50;47.27;;;25.67;;
23416;SDS011;11881;42.432;25.632;2024-03-08T01:38:17;42.77;;;25.10;;
23416;SDS011;11881;42.432;25.632;2024-03-08T01:40:43;45.00;;;25.03;;
23416;SDS011;11881;42.432;25.632;2024-03-08T01:43:20;45.23;;;25.27;;
23416;SDS011;11881;42.432;25.632;2024-03-08T01:45:53;45.73;;;25.53;;
23416;SDS011;11881;42.432;25.632;2024-03-08T01:48:20;44.97;;;24.40;;
23416;SDS011;11881;42.432;25.632;2024-03-08T01:50:49;51.33;;;25.77;;
23416;SDS011;11881;42.432;25.632;2024-03-08T01:53:17;40.97;;;23.90;;
23416;SDS011;11881;42.432;25.632;2024-03-08T01:55:44;50.67;;;23.77;;
23416;SDS011;11881;42.432;25.632;2024-03-08T01:58:11;47.77;;;23.67;;
23416;SDS011;11881;42.432;25.632;2024-03-08T02:00:40;47.63;;;24.90;;
23416;SDS011;11881;42.432;25.632;2024-03-08T02:03:10;42.60;;;23.87;;
23416;SDS011;11881;42.432;25.632;2024-03-08T02:05:36;52.73;;;24.57;;
23416;SDS011;11881;42.432;25.632;2024-03-08T02:08:05;46.13;;;25.43;;
23416;SDS011;11881;42.432;25.632;2024-03-08T02:10:38;49.27;;;23.43;;
23416;SDS011;11881;42.432;25.632;2024-03-08T02:13:04;49.17;;;25.17;;
23416;SDS011;11881;42.432;25.632;2024-03-08T02:18:15;43.23;;;23.20;;
23416;SDS011;11881;42.432;25.632;2024-03-08T02:20:42;46.27;;;24.83;;
23416;SDS011;11881;42.432;25.632;2024-03-08T02:23:08;44.37;;;24.43;;
23416;SDS011;11881;42.432;25.632;2024-03-08T02:25:34;40.50;;;24.07;;
23416;SDS011;11881;42.432;25.632;2024-03-08T02:28:00;47.47;;;24.63;;
23416;SDS011;11881;42.432;25.632;2024-03-08T02:30:25;42.40;;;22.93;;
23416;SDS011;11881;42.432;25.632;2024-03-08T02:32:54;42.93;;;24.37;;
23416;SDS011;11881;42.432;25.632;2024-03-08T02:35:20;43.13;;;22.63;;
23416;SDS011;11881;42.432;25.632;2024-03-08T02:37:46;36.97;;;22.43;;
23416;SDS011;11881;42.432;25.632;2024-03-08T02:40:13;37.77;;;22.43;;
23416;SDS011;11881;42.432;25.632;2024-03-08T02:42:38;37.27;;;23.30;;
23416;SDS011;11881;42.432;25.632;2024-03-08T02:45:04;40.47;;;22.87;;
23416;SDS011;11881;42.432;25.632;2024-03-08T02:47:31;40.27;;;22.80;;
23416;SDS011;11881;42.432;25.632;2024-03-08T02:49:57;37.37;;;22.57;;
23416;SDS011;11881;42.432;25.632;2024-03-08T02:52:22;36.93;;;22.10;;
23416;SDS011;11881;42.432;25.632;2024-03-08T02:54:48;34.97;;;21.80;;
23416;SDS011;11881;42.432;25.632;2024-03-08T02:57:13;40.80;;;21.60;;
23416;SDS011;11881;42.432;25.632;2024-03-08T02:59:40;38.23;;;20.87;;
23416;SDS011;11881;42.432;25.632;2024-03-08T03:02:05;35.93;;;22.07;;
23416;SDS011;11881;42.432;25.632;2024-03-08T03:04:31;36.70;;;21.97;;
23416;SDS011;11881;42.432;25.632;2024-03-08T03:07:00;39.37;;;21.93;;
23416;SDS011;11881;42.432;25.632;2024-03-08T03:09:26;39.57;;;21.83;;
23416;SDS011;11881;42.432;25.632;2024-03-08T03:11:55;36.87;;;21.43;;
23416;SDS011;11881;42.432;25.632;2024-03-08T03:14:21;40.60;;;21.83;;
23416;SDS011;11881;42.432;25.632;2024-03-08T03:16:47;38.07;;;21.93;;
23416;SDS011;11881;42.432;25.632;2024-03-08T03:19:12;40.60;;;22.93;;
23416;SDS011;11881;42.432;25.632;2024-03-08T03:21:38;40.83;;;21.87;;
23416;SDS011;11881;42.432;25.632;2024-03-08T03:24:03;43.67;;;23.53;;
23416;SDS011;11881;42.432;25.632;2024-03-08T03:26:35;40.40;;;22.70;;
23416;SDS011;11881;42.432;25.632;2024-03-08T03:29:06;37.40;;;22.33;;
23416;SDS011;11881;42.432;25.632;2024-03-08T03:31:33;36.70;;;23.30;;
23416;SDS011;11881;42.432;25.632;2024-03-08T03:33:59;40.70;;;23.83;;
23416;SDS011;11881;42.432;25.632;2024-03-08T03:36:27;42.50;;;23.60;;
23416;SDS011;11881;42.432;25.632;2024-03-08T03:38:55;42.90;;;24.00;;
23416;SDS011;11881;42.432;25.632;2024-03-08T03:41:41;47.10;;;25.27;;
23416;SDS011;11881;42.432;25.632;2024-03-08T03:44:06;47.50;;;23.97;;
23416;SDS011;11881;42.432;25.632;2024-03-08T03:46:32;43.20;;;24.87;;
23416;SDS011;11881;42.432;25.632;2024-03-08T03:48:58;49.33;;;24.90;;
23416;SDS011;11881;42.432;25.632;2024-03-08T03:51:24;52.47;;;24.20;;
23416;SDS011;11881;42.432;25.632;2024-03-08T03:53:50;42.37;;;25.23;;
23416;SDS011;11881;42.432;25.632;2024-03-08T03:56:15;43.97;;;24.60;;
23416;SDS011;11881;42.432;25.632;2024-03-08T03:58:41;47.80;;;26.03;;
23416;SDS011;11881;42.432;25.632;2024-03-08T04:01:07;44.40;;;24.43;;
23416;SDS011;11881;42.432;25.632;2024-03-08T04:03:35;46.10;;;25.97;;
23416;SDS011;11881;42.432;25.632;2024-03-08T04:06:00;49.40;;;25.27;;
23416;SDS011;11881;42.432;25.632;2024-03-08T04:08:27;43.23;;;24.33;;
23416;SDS011;11881;42.432;25.632;2024-03-08T04:10:52;45.10;;;24.23;;
23416;SDS011;11881;42.432;25.632;2024-03-08T04:13:18;44.80;;;24.33;;
23416;SDS011;11881;42.432;25.632;2024-03-08T04:15:45;42.63;;;24.27;;
23416;SDS011;11881;42.432;25.632;2024-03-08T04:18:13;52.53;;;27.60;;
23416;SDS011;11881;42.432;25.632;2024-03-08T04:20:39;68.20;;;37.27;;
23416;SDS011;11881;42.432;25.632;2024-03-08T04:23:05;83.83;;;47.73;;
23416;SDS011;11881;42.432;25.632;2024-03-08T04:25:31;73.27;;;40.60;;
23416;SDS011;11881;42.432;25.632;2024-03-08T04:27:56;81.67;;;48.10;;
23416;SDS011;11881;42.432;25.632;2024-03-08T04:30:22;65.20;;;38.40;;
23416;SDS011;11881;42.432;25.632;2024-03-08T04:32:47;49.87;;;27.33;;
23416;SDS011;11881;42.432;25.632;2024-03-08T04:35:14;58.70;;;33.63;;
23416;SDS011;11881;42.432;25.632;2024-03-08T04:37:40;52.23;;;30.37;;
23416;SDS011;11881;42.432;25.632;2024-03-08T04:40:06;40.97;;;24.93;;
23416;SDS011;11881;42.432;25.632;2024-03-08T04:42:33;41.57;;;24.33;;
23416;SDS011;11881;42.432;25.632;2024-03-08T04:45:02;38.20;;;23.57;;
23416;SDS011;11881;42.432;25.632;2024-03-08T04:47:29;44.60;;;23.50;;
23416;SDS011;11881;42.432;25.632;2024-03-08T04:49:54;41.83;;;22.10;;
23416;SDS011;11881;42.432;25.632;2024-03-08T04:52:21;37.13;;;21.57;;
23416;SDS011;11881;42.432;25.632;2024-03-08T04:54:47;41.03;;;22.97;;
23416;SDS011;11881;42.432;25.632;2024-03-08T04:57:12;41.60;;;22.90;;
23416;SDS011;11881;42.432;25.632;2024-03-08T04:59:38;33.83;;;21.37;;
23416;SDS011;11881;42.432;25.632;2024-03-08T05:02:03;37.30;;;20.23;;
23416;SDS011;11881;42.432;25.632;2024-03-08T05:04:29;33.10;;;19.40;;
23416;SDS011;11881;42.432;25.632;2024-03-08T05:06:55;34.83;;;20.20;;
23416;SDS011;11881;42.432;25.632;2024-03-08T05:09:20;36.23;;;20.07;;
23416;SDS011;11881;42.432;25.632;2024-03-08T05:11:46;36.20;;;20.57;;
23416;SDS011;11881;42.432;25.632;2024-03-08T05:14:12;31.70;;;20.23;;
23416;SDS011;11881;42.432;25.632;2024-03-08T05:16:42;37.00;;;19.50;;
23416;SDS011;11881;42.432;25.632;2024-03-08T05:19:08;34.77;;;20.07;;
23416;SDS011;11881;42.432;25.632;2024-03-08T05:21:33;34.83;;;19.67;;
23416;SDS011;11881;42.432;25.632;2024-03-08T05:23:59;31.33;;;19.87;;
23416;SDS011;11881;42.432;25.632;2024-03-08T05:26:24;36.33;;;20.63;;
23416;SDS011;11881;42.432;25.632;2024-03-08T05:28:50;30.87;;;20.00;;
23416;SDS011;11881;42.432;25.632;2024-03-08T05:31:21;35.77;;;20.87;;
23416;SDS011;11881;42.432;25.632;2024-03-08T05:33:50;37.07;;;20.93;;
23416;SDS011;11881;42.432;25.632;2024-03-08T05:36:15;36.10;;;21.33;;
23416;SDS011;11881;42.432;25.632;2024-03-08T05:38:44;32.00;;;19.93;;
23416;SDS011;11881;42.432;25.632;2024-03-08T05:41:10;40.40;;;20.43;;
23416;SDS011;11881;42.432;25.632;2024-03-08T05:43:40;41.43;;;22.53;;
23416;SDS011;11881;42.432;25.632;2024-03-08T05:46:05;37.43;;;22.20;;
23416;SDS011;11881;42.432;25.632;2024-03-08T05:48:31;38.73;;;23.27;;
23416;SDS011;11881;42.432;25.632;2024-03-08T05:51:00;41.57;;;23.97;;
23416;SDS011;11881;42.432;25.632;2024-03-08T05:53:26;41.03;;;23.47;;
23416;SDS011;11881;42.432;25.632;2024-03-08T05:55:52;40.00;;;23.77;;
23416;SDS011;11881;42.432;25.632;2024-03-08T05:58:17;41.47;;;23.90;;
23416;SDS011;11881;42.432;25.632;2024-03-08T06:00:43;37.37;;;23.43;;
23416;SDS011;11881;42.432;25.632;2024-03-08T06:03:11;41.30;;;23.17;;
23416;SDS011;11881;42.432;25.632;2024-03-08T06:05:36;44.73;;;23.60;;
23416;SDS011;11881;42.432;25.632;2024-03-08T06:08:02;40.23;;;22.70;;
23416;SDS011;11881;42.432;25.632;2024-03-08T06:10:29;35.63;;;22.13;;
23416;SDS011;11881;42.432;25.632;2024-03-08T06:12:55;40.27;;;21.87;;
23416;SDS011;11881;42.432;25.632;2024-03-08T06:15:20;42.20;;;23.07;;
23416;SDS011;11881;42.432;25.632;2024-03-08T06:17:46;39.07;;;22.50;;
23416;SDS011;11881;42.432;25.632;2024-03-08T06:20:11;38.70;;;22.13;;
23416;SDS011;11881;42.432;25.632;2024-03-08T06:22:38;37.27;;;22.57;;
23416;SDS011;11881;42.432;25.632;2024-03-08T06:25:08;38.87;;;23.40;;
23416;SDS011;11881;42.432;25.632;2024-03-08T06:27:36;39.50;;;22.63;;
23416;SDS011;11881;42.432;25.632;2024-03-08T06:30:01;35.33;;;22.60;;
23416;SDS011;11881;42.432;25.632;2024-03-08T06:32:29;36.10;;;21.13;;
23416;SDS011;11881;42.432;25.632;2024-03-08T06:34:55;36.47;;;21.10;;
23416;SDS011;11881;42.432;25.632;2024-03-08T06:37:21;37.57;;;21.13;;
23416;SDS011;11881;42.432;25.632;2024-03-08T06:39:47;37.27;;;21.67;;
23416;SDS011;11881;42.432;25.632;2024-03-08T06:42:13;32.43;;;21.37;;
23416;SDS011;11881;42.432;25.632;2024-03-08T06:44:39;35.77;;;20.63;;
23416;SDS011;11881;42.432;25.632;2024-03-08T06:47:13;32.03;;;20.97;;
23416;SDS011;11881;42.432;25.632;2024-03-08T06:49:40;33.73;;;20.80;;
23416;SDS011;11881;42.432;25.632;2024-03-08T06:52:06;33.87;;;21.13;;
23416;SDS011;11881;42.432;25.632;2024-03-08T06:54:34;39.20;;;21.67;;
23416;SDS011;11881;42.432;25.632;2024-03-08T06:57:01;37.93;;;22.90;;
23416;SDS011;11881;42.432;25.632;2024-03-08T06:59:28;39.40;;;23.03;;
23416;SDS011;11881;42.432;25.632;2024-03-08T07:01:54;47.17;;;27.20;;
23416;SDS011;11881;42.432;25.632;2024-03-08T07:04:19;44.50;;;26.97;;
23416;SDS011;11881;42.432;25.632;2024-03-08T07:06:47;45.77;;;27.53;;
23416;SDS011;11881;42.432;25.632;2024-03-08T07:09:15;50.67;;;33.73;;
23416;SDS011;11881;42.432;25.632;2024-03-08T07:11:42;54.80;;;36.73;;
23416;SDS011;11881;42.432;25.632;2024-03-08T07:14:08;60.63;;;40.47;;
23416;SDS011;11881;42.432;25.632;2024-03-08T07:16:34;57.03;;;41.20;;
23416;SDS011;11881;42.432;25.632;2024-03-08T07:19:04;59.13;;;41.20;;
23416;SDS011;11881;42.432;25.632;2024-03-08T07:21:30;57.07;;;35.90;;
23416;SDS011;11881;42.432;25.632;2024-03-08T07:23:56;58.17;;;34.83;;
23416;SDS011;11881;42.432;25.632;2024-03-08T07:26:24;50.03;;;31.03;;
23416;SDS011;11881;42.432;25.632;2024-03-08T07:28:50;53.53;;;31.57;;
23416;SDS011;11881;42.432;25.632;2024-03-08T07:31:15;45.63;;;27.53;;
23416;SDS011;11881;42.432;25.632;2024-03-08T07:34:01;48.37;;;29.93;;
23416;SDS011;11881;42.432;25.632;2024-03-08T07:36:26;45.97;;;28.10;;
23416;SDS011;11881;42.432;25.632;2024-03-08T07:38:52;44.97;;;29.27;;
23416;SDS011;11881;42.432;25.632;2024-03-08T07:41:17;51.93;;;30.93;;
23416;SDS011;11881;42.432;25.632;2024-03-08T07:43:43;53.63;;;33.83;;
23416;SDS011;11881;42.432;25.632;2024-03-08T07:46:11;50.37;;;29.57;;
23416;SDS011;11881;42.432;25.632;2024-03-08T07:48:38;51.53;;;31.27;;
23416;SDS011;11881;42.432;25.632;2024-03-08T07:51:05;46.93;;;29.17;;
23416;SDS011;11881;42.432;25.632;2024-03-08T07:53:30;36.93;;;25.73;;
23416;SDS011;11881;42.432;25.632;2024-03-08T07:55:56;39.40;;;23.93;;
23416;SDS011;11881;42.432;25.632;2024-03-08T07:58:22;39.30;;;24.90;;
23416;SDS011;11881;42.432;25.632;2024-03-08T08:00:48;42.83;;;24.50;;
23416;SDS011;11881;42.432;25.632;2024-03-08T08:03:14;31.20;;;22.87;;
23416;SDS011;11881;42.432;25.632;2024-03-08T08:05:41;29.97;;;18.90;;
23416;SDS011;11881;42.432;25.632;2024-03-08T08:08:09;35.03;;;20.20;;
23416;SDS011;11881;42.432;25.632;2024-03-08T08:10:35;34.60;;;20.47;;
23416;SDS011;11881;42.432;25.632;2024-03-08T08:13:02;34.33;;;20.23;;
23416;SDS011;11881;42.432;25.632;2024-03-08T08:15:29;32.53;;;20.00;;
23416;SDS011;11881;42.432;25.632;2024-03-08T08:17:55;31.37;;;17.97;;
23416;SDS011;11881;42.432;25.632;2024-03-08T08:20:20;29.20;;;17.97;;
23416;SDS011;11881;42.432;25.632;2024-03-08T08:22:47;30.97;;;18.77;;
23416;SDS011;11881;42.432;25.632;2024-03-08T08:25:13;28.10;;;18.00;;
23416;SDS011;11881;42.432;25.632;2024-03-08T08:27:45;26.87;;;18.33;;
23416;SDS011;11881;42.432;25.632;2024-03-08T08:30:11;29.33;;;18.47;;
23416;SDS011;11881;42.432;25.632;2024-03-08T08:32:37;29.87;;;17.90;;
23416;SDS011;11881;42.432;25.632;2024-03-08T08:35:04;27.87;;;17.33;;
23416;SDS011;11881;42.432;25.632;2024-03-08T08:37:31;31.20;;;17.80;;
23416;SDS011;11881;42.432;25.632;2024-03-08T08:39:57;26.03;;;17.30;;
23416;SDS011;11881;42.432;25.632;2024-03-08T08:42:23;28.43;;;15.83;;
23416;SDS011;11881;42.432;25.632;2024-03-08T08:44:49;26.97;;;16.70;;
23416;SDS011;11881;42.432;25.632;2024-03-08T08:47:15;28.63;;;16.87;;
23416;SDS011;11881;42.432;25.632;2024-03-08T08:49:44;29.27;;;16.67;;
23416;SDS011;11881;42.432;25.632;2024-03-08T08:52:11;31.53;;;17.03;;
23416;SDS011;11881;42.432;25.632;2024-03-08T08:54:36;28.83;;;16.30;;
23416;SDS011;11881;42.432;25.632;2024-03-08T08:57:02;28.13;;;16.07;;
23416;SDS011;11881;42.432;25.632;2024-03-08T08:59:33;27.53;;;15.90;;
23416;SDS011;11881;42.432;25.632;2024-03-08T09:02:01;25.03;;;15.20;;
23416;SDS011;11881;42.432;25.632;2024-03-08T09:04:27;30.10;;;15.83;;
23416;SDS011;11881;42.432;25.632;2024-03-08T09:06:53;24.17;;;15.17;;
23416;SDS011;11881;42.432;25.632;2024-03-08T09:09:18;24.30;;;14.40;;
23416;SDS011;11881;42.432;25.632;2024-03-08T09:11:44;27.37;;;14.23;;
23416;SDS011;11881;42.432;25.632;2024-03-08T09:14:11;24.70;;;15.03;;
23416;SDS011;11881;42.432;25.632;2024-03-08T09:16:37;29.17;;;15.57;;
23416;SDS011;11881;42.432;25.632;2024-03-08T09:19:02;25.37;;;15.17;;
23416;SDS011;11881;42.432;25.632;2024-03-08T09:21:28;26.40;;;15.70;;
23416;SDS011;11881;42.432;25.632;2024-03-08T09:23:53;25.80;;;14.00;;
23416;SDS011;11881;42.432;25.632;2024-03-08T09:26:19;22.67;;;13.73;;
23416;SDS011;11881;42.432;25.632;2024-03-08T09:28:45;19.80;;;13.53;;
23416;SDS011;11881;42.432;25.632;2024-03-08T09:31:11;25.20;;;14.47;;
23416;SDS011;11881;42.432;25.632;2024-03-08T09:33:37;23.63;;;14.97;;
23416;SDS011;11881;42.432;25.632;2024-03-08T09:36:04;24.37;;;15.03;;
23416;SDS011;11881;42.432;25.632;2024-03-08T09:38:32;24.70;;;16.20;;
23416;SDS011;11881;42.432;25.632;2024-03-08T09:40:59;27.60;;;16.30;;
23416;SDS011;11881;42.432;25.632;2024-03-08T09:43:26;22.57;;;14.53;;
23416;SDS011;11881;42.432;25.632;2024-03-08T09:45:55;23.17;;;14.80;;
23416;SDS011;11881;42.432;25.632;2024-03-08T09:48:22;24.67;;;16.17;;
23416;SDS011;11881;42.432;25.632;2024-03-08T09:50:48;28.30;;;18.33;;
23416;SDS011;11881;42.432;25.632;2024-03-08T09:53:14;30.23;;;19.77;;
23416;SDS011;11881;42.432;25.632;2024-03-08T09:55:40;29.77;;;18.40;;
23416;SDS011;11881;42.432;25.632;2024-03-08T09:58:10;28.37;;;18.27;;
23416;SDS011;11881;42.432;25.632;2024-03-08T10:00:43;25.50;;;15.27;;
23416;SDS011;11881;42.432;25.632;2024-03-08T10:03:08;22.33;;;15.13;;
23416;SDS011;11881;42.432;25.632;2024-03-08T10:05:34;27.77;;;16.10;;
23416;SDS011;11881;42.432;25.632;2024-03-08T10:08:00;27.47;;;16.67;;
23416;SDS011;11881;42.432;25.632;2024-03-08T10:10:25;25.43;;;17.17;;
23416;SDS011;11881;42.432;25.632;2024-03-08T10:12:51;25.83;;;16.27;;
23416;SDS011;11881;42.432;25.632;2024-03-08T10:15:17;31.17;;;17.77;;
23416;SDS011;11881;42.432;25.632;2024-03-08T10:17:43;31.43;;;18.07;;
23416;SDS011;11881;42.432;25.632;2024-03-08T10:20:15;26.20;;;15.87;;
23416;SDS011;11881;42.432;25.632;2024-03-08T10:22:43;28.60;;;17.07;;
23416;SDS011;11881;42.432;25.632;2024-03-08T10:25:12;26.17;;;17.07;;
23416;SDS011;11881;42.432;25.632;2024-03-08T10:27:38;23.43;;;15.83;;
23416;SDS011;11881;42.432;25.632;2024-03-08T10:30:06;26.53;;;16.30;;
23416;SDS011;11881;42.432;25.632;2024-03-08T10:32:35;29.50;;;16.70;;
23416;SDS011;11881;42.432;25.632;2024-03-08T10:35:00;25.63;;;16.33;;
23416;SDS011;11881;42.432;25.632;2024-03-08T10:37:26;28.27;;;17.20;;
23416;SDS011;11881;42.432;25.632;2024-03-08T10:40:02;27.17;;;16.07;;
23416;SDS011;11881;42.432;25.632;2024-03-08T10:42:41;22.97;;;15.27;;
23416;SDS011;11881;42.432;25.632;2024-03-08T10:48:04;28.97;;;15.27;;
23416;SDS011;11881;42.432;25.632;2024-03-08T10:50:41;26.20;;;17.23;;
23416;SDS011;11881;42.432;25.632;2024-03-08T10:53:10;21.53;;;13.90;;
23416;SDS011;11881;42.432;25.632;2024-03-08T10:55:39;18.30;;;12.00;;
23416;SDS011;11881;42.432;25.632;2024-03-08T10:58:08;19.07;;;12.60;;
23416;SDS011;11881;42.432;25.632;2024-03-08T11:00:36;18.43;;;12.10;;
23416;SDS011;11881;42.432;25.632;2024-03-08T11:03:02;25.53;;;13.13;;
23416;SDS011;11881;42.432;25.632;2024-03-08T11:05:32;22.87;;;13.37;;
23416;SDS011;11881;42.432;25.632;2024-03-08T11:08:05;22.10;;;13.50;;
23416;SDS011;11881;42.432;25.632;2024-03-08T11:10:52;22.33;;;12.53;;
23416;SDS011;11881;42.432;25.632;2024-03-08T11:13:36;20.90;;;12.60;;
23416;SDS011;11881;42.432;25.632;2024-03-08T11:16:13;23.63;;;14.37;;
23416;SDS011;11881;42.432;25.632;2024-03-08T11:19:00;24.67;;;14.93;;
23416;SDS011;11881;42.432;25.632;2024-03-08T11:21:30;20.37;;;12.10;;
23416;SDS011;11881;42.432;25.632;2024-03-08T11:23:59;22.57;;;12.37;;
23416;SDS011;11881;42.432;25.632;2024-03-08T11:26:25;20.87;;;12.63;;
23416;SDS011;11881;42.432;25.632;2024-03-08T11:28:56;22.80;;;11.63;;
23416;SDS011;11881;42.432;25.632;2024-03-08T11:34:42;17.57;;;11.93;;
23416;SDS011;11881;42.432;25.632;2024-03-08T11:37:16;23.93;;;12.90;;
23416;SDS011;11881;42.432;25.632;2024-03-08T11:39:49;18.47;;;11.83;;
23416;SDS011;11881;42.432;25.632;2024-03-08T11:42:17;17.67;;;12.13;;
23416;SDS011;11881;42.432;25.632;2024-03-08T11:44:44;19.70;;;13.07;;
23416;SDS011;11881;42.432;25.632;2024-03-08T11:47:10;18.27;;;12.10;;
23416;SDS011;11881;42.432;25.632;2024-03-08T11:49:37;17.73;;;11.03;;
23416;SDS011;11881;42.432;25.632;2024-03-08T11:52:04;18.07;;;11.67;;
23416;SDS011;11881;42.432;25.632;2024-03-08T11:54:30;21.87;;;12.43;;
23416;SDS011;11881;42.432;25.632;2024-03-08T11:56:59;22.07;;;12.27;;
23416;SDS011;11881;42.432;25.632;2024-03-08T11:59:27;18.70;;;11.00;;
23416;SDS011;11881;42.432;25.632;2024-03-08T12:02:00;24.30;;;13.50;;
23416;SDS011;11881;42.432;25.632;2024-03-08T12:04:29;28.00;;;12.23;;
23416;SDS011;11881;42.432;25.632;2024-03-08T12:06:56;23.73;;;12.37;;
23416;SDS011;11881;42.432;25.632;2024-03-08T12:09:27;23.63;;;12.10;;
23416;SDS011;11881;42.432;25.632;2024-03-08T12:11:53;21.93;;;12.13;;
23416;SDS011;11881;42.432;25.632;2024-03-08T12:14:18;19.33;;;12.40;;
23416;SDS011;11881;42.432;25.632;2024-03-08T12:16:44;19.47;;;13.03;;
23416;SDS011;11881;42.432;25.632;2024-03-08T12:19:09;22.63;;;13.13;;
23416;SDS011;11881;42.432;25.632;2024-03-08T12:21:35;23.10;;;13.40;;
23416;SDS011;11881;42.432;25.632;2024-03-08T12:24:05;21.17;;;13.60;;
23416;SDS011;11881;42.432;25.632;2024-03-08T12:26:37;25.07;;;14.10;;
23416;SDS011;11881;42.432;25.632;2024-03-08T12:31:52;22.40;;;14.67;;
23416;SDS011;11881;42.432;25.632;2024-03-08T12:34:19;22.60;;;13.70;;
23416;SDS011;11881;42.432;25.632;2024-03-08T12:36:48;22.97;;;14.47;;
23416;SDS011;11881;42.432;25.632;2024-03-08T12:39:20;20.47;;;13.73;;
23416;SDS011;11881;42.432;25.632;2024-03-08T12:41:55;23.20;;;14.13;;
23416;SDS011;11881;42.432;25.632;2024-03-08T12:44:22;20.00;;;13.97;;
23416;SDS011;11881;42.432;25.632;2024-03-08T12:46:47;22.87;;;14.83;;
23416;SDS011;11881;42.432;25.632;2024-03-08T12:49:14;22.70;;;14.77;;
23416;SDS011;11881;42.432;25.632;2024-03-08T12:51:45;23.97;;;14.13;;
23416;SDS011;11881;42.432;25.632;2024-03-08T12:54:11;23.63;;;15.03;;
23416;SDS011;11881;42.432;25.632;2024-03-08T12:56:37;23.90;;;16.00;;
23416;SDS011;11881;42.432;25.632;2024-03-08T12:59:03;25.00;;;16.23;;
23416;SDS011;11881;42.432;25.632;2024-03-08T13:01:30;26.90;;;16.37;;
23416;SDS011;11881;42.432;25.632;2024-03-08T13:04:03;25.83;;;16.47;;
23416;SDS011;11881;42.432;25.632;2024-03-08T13:06:31;26.47;;;16.47;;
23416;SDS011;11881;42.432;25.632;2024-03-08T13:08:56;23.47;;;14.93;;
23416;SDS011;11881;42.432;25.632;2024-03-08T13:11:23;21.70;;;13.97;;
23416;SDS011;11881;42.432;25.632;2024-03-08T13:13:49;18.50;;;11.70;;
23416;SDS011;11881;42.432;25.632;2024-03-08T13:16:15;12.47;;;9.93;;
23416;SDS011;11881;42.432;25.632;2024-03-08T13:18:42;12.10;;;8.80;;
23416;SDS011;11881;42.432;25.632;2024-03-08T13:21:08;12.13;;;7.90;;
23416;SDS011;11881;42.432;25.632;2024-03-08T13:23:36;12.40;;;8.70;;
23416;SDS011;11881;42.432;25.632;2024-03-08T13:26:08;12.80;;;8.20;;
23416;SDS011;11881;42.432;25.632;2024-03-08T13:28:50;10.47;;;7.97;;
23416;SDS011;11881;42.432;25.632;2024-03-08T13:31:19;11.60;;;7.80;;
23416;SDS011;11881;42.432;25.632;2024-03-08T13:33:48;10.07;;;7.63;;
23416;SDS011;11881;42.432;25.632;2024-03-08T13:36:13;13.80;;;8.30;;
23416;SDS011;11881;42.432;25.632;2024-03-08T13:38:43;13.97;;;8.57;;
23416;SDS011;11881;42.432;25.632;2024-03-08T13:41:12;15.53;;;9.70;;
23416;SDS011;11881;42.432;25.632;2024-03-08T13:43:46;13.07;;;9.87;;
23416;SDS011;11881;42.432;25.632;2024-03-08T13:46:15;8.03;;;6.50;;
23416;SDS011;11881;42.432;25.632;2024-03-08T13:48:41;10.07;;;6.70;;
23416;SDS011;11881;42.432;25.632;2024-03-08T13:51:06;10.17;;;6.50;;
23416;SDS011;11881;42.432;25.632;2024-03-08T13:53:35;7.63;;;6.23;;
23416;SDS011;11881;42.432;25.632;2024-03-08T13:56:04;10.20;;;6.50;;
23416;SDS011;11881;42.432;25.632;2024-03-08T13:58:30;9.73;;;6.87;;
23416;SDS011;11881;42.432;25.632;2024-03-08T14:00:56;8.77;;;6.00;;
23416;SDS011;11881;42.432;25.632;2024-03-08T14:03:22;12.27;;;5.70;;
23416;SDS011;11881;42.432;25.632;2024-03-08T14:05:49;7.70;;;4.40;;
23416;SDS011;11881;42.432;25.632;2024-03-08T14:08:15;7.53;;;4.97;;
23416;SDS011;11881;42.432;25.632;2024-03-08T14:10:42;5.60;;;4.40;;
23416;SDS011;11881;42.432;25.632;2024-03-08T14:13:08;7.60;;;3.50;;
23416;SDS011;11881;42.432;25.632;2024-03-08T14:15:33;6.87;;;4.07;;
23416;SDS011;11881;42.432;25.632;2024-03-08T14:18:00;7.33;;;4.23;;
23416;SDS011;11881;42.432;25.632;2024-03-08T14:20:26;4.87;;;3.63;;
23416;SDS011;11881;42.432;25.632;2024-03-08T14:22:53;6.53;;;3.50;;